Time;durP1;ratioP1;P1;durP2;ratioP2;P2;SDS_P1;SDS_P2;PMS_P1;PMS_P2;Temp;Humidity;BMP_temperature;BMP_pressure;BME280_temperature;BME280_humidity;BME280_pressure;Samples;Min_cycle;Max_cycle;Signal;HPM_P1;HPM_P2
2022/06/06 00:00:49;;;;;;;1.42;1.20;;;;;;;17.29;100.00;100805.06;6221851;28;20057;-75
2022/06/06 00:03:51;;;;;;;1.50;1.35;;;;;;;17.01;100.00;100806.44;6221797;28;20057;-75
2022/06/06 00:06:54;;;;;;;1.45;1.33;;;;;;;16.81;100.00;100800.06;6214623;28;20054;-75
2022/06/06 00:09:56;;;;;;;2.33;1.58;;;;;;;16.65;100.00;100802.19;6197465;28;20054;-74
2022/06/06 00:12:57;;;;;;;2.65;1.63;;;;;;;16.54;100.00;100792.41;6197546;28;20061;-74
2022/06/06 00:16:00;;;;;;;2.88;1.48;;;;;;;16.45;100.00;100795.78;6197403;28;20046;-74
2022/06/06 00:19:02;;;;;;;1.67;1.48;;;;;;;16.40;100.00;100795.28;6196100;28;20529;-75
2022/06/06 00:22:03;;;;;;;2.03;1.83;;;;;;;16.40;100.00;100789.97;6195915;28;20065;-74
2022/06/06 00:25:06;;;;;;;1.98;1.73;;;;;;;16.43;100.00;100793.22;6200086;28;20045;-75
2022/06/06 00:28:07;;;;;;;3.08;1.95;;;;;;;16.41;100.00;100791.66;6221983;28;20058;-75
2022/06/06 00:37:44;;;;;;;4.15;2.67;;;;;;;16.37;100.00;100799.00;6221634;28;20057;-74
2022/06/06 00:40:48;;;;;;;3.55;2.33;;;;;;;16.34;100.00;100796.56;6224266;28;20065;-75
2022/06/06 00:44:02;;;;;;;4.45;2.60;;;;;;;16.33;100.00;100796.72;6225768;28;20050;-74
2022/06/06 00:47:14;;;;;;;3.92;2.80;;;;;;;16.34;100.00;100791.28;6226450;28;20133;-74
2022/06/06 00:50:18;;;;;;;3.58;2.88;;;;;;;16.32;100.00;100792.38;6225927;28;20058;-74
2022/06/06 00:53:24;;;;;;;4.13;3.30;;;;;;;16.31;100.00;100790.69;6226340;28;20049;-75
2022/06/06 00:56:30;;;;;;;5.68;3.70;;;;;;;16.31;100.00;100788.88;6225409;28;20049;-75
2022/06/06 00:59:37;;;;;;;6.93;3.95;;;;;;;16.32;100.00;100790.56;6226189;28;20050;-75
2022/06/06 01:02:41;;;;;;;4.10;3.40;;;;;;;16.31;100.00;100796.84;6225638;28;20425;-74
2022/06/06 01:05:44;;;;;;;6.35;4.07;;;;;;;16.31;100.00;100796.84;6225199;28;20429;-74
2022/06/06 01:08:47;;;;;;;6.68;4.22;;;;;;;16.32;100.00;100795.88;6225624;28;20057;-74
2022/06/06 01:11:52;;;;;;;6.13;4.25;;;;;;;16.34;100.00;100801.03;6225668;28;20056;-73
2022/06/06 01:14:57;;;;;;;6.57;4.35;;;;;;;16.34;100.00;100799.22;6225184;28;20042;-73
2022/06/06 01:18:10;;;;;;;7.18;4.47;;;;;;;16.38;100.00;100799.84;6225442;28;20049;-74
2022/06/06 01:21:38;;;;;;;7.50;4.53;;;;;;;16.40;100.00;100803.25;6225182;28;20086;-73
2022/06/06 01:25:04;;;;;;;6.13;4.45;;;;;;;16.42;100.00;100806.59;6212413;28;20042;-74
2022/06/06 01:28:20;;;;;;;9.60;4.60;;;;;;;16.43;100.00;100814.44;6224875;28;20192;-73
2022/06/06 01:31:28;;;;;;;4.22;3.67;;;;;;;16.46;100.00;100814.22;6225044;28;20176;-73
2022/06/06 01:34:32;;;;;;;5.50;3.63;;;;;;;16.46;100.00;100821.34;6224658;28;20053;-74
2022/06/06 01:37:35;;;;;;;6.60;4.22;;;;;;;16.49;100.00;100813.16;6224999;28;20423;-74
2022/06/06 01:40:55;;;;;;;5.30;3.38;;;;;;;16.47;100.00;100812.41;6224581;28;20050;-74
2022/06/06 01:44:01;;;;;;;;;;;;;;;16.44;100.00;100809.97;6225052;28;20049;-74
2022/06/06 01:47:06;;;;;;;7.82;4.95;;;;;;;16.39;100.00;100817.44;6224787;28;20004;-74
2022/06/06 01:50:10;;;;;;;5.43;4.00;;;;;;;16.40;100.00;100827.13;6224822;28;20046;-74
2022/06/06 01:53:14;;;;;;;7.35;5.03;;;;;;;16.38;100.00;100831.69;6224657;28;20102;-74
2022/06/06 01:56:20;;;;;;;7.80;4.47;;;;;;;16.38;100.00;100827.22;6223993;28;20453;-73
2022/06/06 01:59:23;;;;;;;7.70;4.55;;;;;;;16.41;100.00;100829.63;6222227;28;20050;-73
2022/06/06 02:02:24;;;;;;;7.88;5.00;;;;;;;16.39;100.00;100831.56;6224216;28;20057;-73
2022/06/06 02:05:26;;;;;;;11.95;5.47;;;;;;;16.38;100.00;100824.56;6224114;28;20061;-74
2022/06/06 02:08:27;;;;;;;14.52;5.38;;;;;;;16.40;100.00;100841.22;6224396;28;20076;-73
2022/06/06 02:11:29;;;;;;;10.13;5.82;;;;;;;16.38;100.00;100840.47;6216277;28;20050;-74
2022/06/06 02:14:31;;;;;;;8.55;5.28;;;;;;;16.40;100.00;100843.03;6199153;28;20053;-74
2022/06/06 02:17:33;;;;;;;12.63;6.30;;;;;;;16.38;100.00;100847.59;6199930;28;20058;-74
2022/06/06 02:20:35;;;;;;;10.50;6.07;;;;;;;16.41;100.00;100842.91;6199194;28;20520;-73
2022/06/06 02:23:36;;;;;;;10.25;6.10;;;;;;;16.42;100.00;100849.06;6199683;28;20505;-74
2022/06/06 02:26:38;;;;;;;8.90;5.63;;;;;;;16.42;100.00;100849.06;6208635;28;20046;-73
2022/06/06 02:29:41;;;;;;;8.13;5.43;;;;;;;16.43;100.00;100843.63;6223592;28;20050;-72
2022/06/06 02:32:43;;;;;;;11.93;5.03;;;;;;;16.42;100.00;100841.94;6223578;28;20050;-72
2022/06/06 02:35:44;;;;;;;9.10;5.20;;;;;;;16.44;100.00;100852.41;6223347;28;20061;-72
2022/06/06 02:38:46;;;;;;;9.20;5.63;;;;;;;16.41;100.00;100856.16;6223452;28;20053;-73
2022/06/06 02:41:47;;;;;;;11.25;6.00;;;;;;;16.42;100.00;100857.84;6223274;28;20132;-72
2022/06/06 02:44:50;;;;;;;12.27;5.85;;;;;;;16.42;100.00;100857.84;6223039;28;20068;-73
2022/06/06 02:47:53;;;;;;;11.85;6.53;;;;;;;16.44;100.00;100852.41;6223455;28;20049;-74
2022/06/06 02:50:55;;;;;;;12.43;6.03;;;;;;;16.45;100.00;100860.28;6223004;28;20061;-74
2022/06/06 02:53:56;;;;;;;12.52;6.63;;;;;;;16.47;100.00;100853.03;6223063;28;20516;-74
2022/06/06 02:56:59;;;;;;;13.88;7.35;;;;;;;16.49;100.00;100855.59;6222691;28;20046;-75
2022/06/06 03:00:03;;;;;;;13.20;6.35;;;;;;;16.51;100.00;100856.31;6223033;28;20054;-73
2022/06/06 03:03:04;;;;;;;14.02;7.70;;;;;;;16.48;100.00;100860.03;6222802;28;20054;-73
2022/06/06 03:06:24;;;;;;;16.13;6.50;;;;;;;16.51;100.00;100864.28;6222784;28;20046;-73
2022/06/06 03:09:38;;;;;;;14.75;6.97;;;;;;;16.49;100.00;100867.03;6222835;28;20536;-74
2022/06/06 03:12:58;;;;;;;14.68;7.25;;;;;;;16.48;100.00;100869.78;6222780;28;20422;-73
2022/06/06 03:23:39;;;;;;;15.85;7.50;;;;;;;16.49;100.00;100879.47;6222856;28;20054;-73
2022/06/06 03:26:51;;;;;;;13.50;7.13;;;;;;;16.49;100.00;100875.00;6220669;28;20057;-73
2022/06/06 03:30:02;;;;;;;22.60;8.63;;;;;;;16.51;100.00;100876.69;6222103;28;20053;-72
2022/06/06 03:33:21;;;;;;;15.15;7.53;;;;;;;16.49;100.00;100880.31;6222520;28;20084;-73
2022/06/06 03:36:29;;;;;;;19.02;8.80;;;;;;;16.56;100.00;100885.13;6222121;28;20045;-73
2022/06/06 03:39:35;;;;;;;20.10;8.55;;;;;;;16.53;100.00;100875.59;6222581;28;20069;-72
2022/06/06 03:42:50;;;;;;;19.98;9.15;;;;;;;16.51;100.00;100882.84;6222075;28;20050;-76
2022/06/06 03:45:57;;;;;;;24.13;10.73;;;;;;;16.53;100.00;100885.38;6222347;28;20133;-73
2022/06/06 03:49:14;;;;;;;18.75;9.02;;;;;;;16.53;100.00;100898.63;6222318;28;20045;-72
2022/06/06 03:52:20;;;;;;;16.80;8.25;;;;;;;16.51;100.00;100896.09;6222226;28;20184;-74
2022/06/06 03:55:33;;;;;;;18.52;8.63;;;;;;;16.52;100.00;100897.78;6221428;28;20076;-73
2022/06/06 03:58:35;;;;;;;17.67;8.55;;;;;;;16.54;100.00;100910.97;6221533;28;20077;-73
2022/06/06 04:01:39;;;;;;;16.55;8.75;;;;;;;16.54;100.00;100908.31;6220657;28;20045;-73
2022/06/06 04:04:43;;;;;;;24.38;11.00;;;;;;;16.51;100.00;100909.38;6221136;28;20054;-74
2022/06/06 04:07:45;;;;;;;20.75;9.18;;;;;;;16.55;100.00;100912.66;6221100;28;20494;-73
2022/06/06 04:10:59;;;;;;;22.08;9.75;;;;;;;16.53;100.00;100919.84;6220847;28;20413;-73
2022/06/06 04:14:12;;;;;;;28.27;11.15;;;;;;;16.54;100.00;100925.06;6220482;28;20058;-73
2022/06/06 04:17:26;;;;;;;20.63;10.05;;;;;;;16.50;100.00;100928.91;6225352;28;20509;-73
2022/06/06 04:20:35;;;;;;;19.48;9.80;;;;;;;16.52;100.00;100924.31;6224813;28;20077;-74
2022/06/06 04:23:51;;;;;;;21.90;9.30;;;;;;;16.44;100.00;100930.22;6225458;28;20057;-72
2022/06/06 04:27:00;;;;;;;25.13;9.55;;;;;;;16.43;100.00;100930.31;6224623;28;20049;-74
2022/06/06 04:30:06;;;;;;;23.30;9.90;;;;;;;16.40;100.00;100938.53;6224828;28;20057;-73
2022/06/06 04:33:18;;;;;;;26.50;9.63;;;;;;;16.35;100.00;100941.53;6224841;28;20517;-72
2022/06/06 04:36:32;;;;;;;28.35;10.23;;;;;;;16.28;100.00;100944.72;6224420;28;20046;-73
2022/06/06 04:39:45;;;;;;;20.83;8.68;;;;;;;16.25;100.00;100956.41;6224707;28;20441;-72
2022/06/06 04:42:55;;;;;;;19.92;9.13;;;;;;;16.19;100.00;100956.84;6224835;28;20046;-74
2022/06/06 04:46:04;;;;;;;24.73;8.40;;;;;;;16.12;100.00;100959.09;6224255;28;20053;-73
2022/06/06 04:49:05;;;;;;;21.17;7.78;;;;;;;16.09;100.00;100958.50;6224215;28;20053;-73
2022/06/06 04:52:10;;;;;;;23.40;8.07;;;;;;;16.02;100.00;100955.44;6224414;28;20057;-73
2022/06/06 04:55:12;;;;;;;19.60;8.82;;;;;;;15.98;100.00;100965.41;6224044;28;20053;-73
2022/06/06 05:00:06;;;;;;;20.23;7.13;;;;;;;16.03;100.00;100966.88;6392116;27;20807;-75
2022/06/06 05:03:08;;;;;;;18.08;6.88;;;;;;;16.07;100.00;100963.91;6394079;27;20046;-74
2022/06/06 05:06:24;;;;;;;22.15;7.50;;;;;;;16.07;100.00;100963.91;6393213;27;20047;-74
2022/06/06 05:09:42;;;;;;;20.45;8.65;;;;;;;16.10;100.00;100978.75;6368572;28;20532;-77
2022/06/06 05:12:59;;;;;;;19.13;7.30;;;;;;;16.04;100.00;100974.75;6368460;28;20055;-75
2022/06/06 05:16:16;;;;;;;15.88;7.28;;;;;;;16.02;100.00;100973.16;6368344;27;20072;-75
2022/06/06 05:19:30;;;;;;;15.70;6.20;;;;;;;16.05;100.00;100970.28;6389598;27;20045;-75
2022/06/06 05:22:56;;;;;;;13.52;6.10;;;;;;;16.06;100.00;100977.28;6393199;27;20046;-75
2022/06/06 05:26:14;;;;;;;14.98;5.60;;;;;;;16.09;100.00;100977.06;6391594;27;20042;-75
2022/06/06 05:29:42;;;;;;;16.30;6.15;;;;;;;16.16;100.00;100973.81;6390949;27;20055;-73
2022/06/06 05:33:02;;;;;;;12.93;4.60;;;;;;;16.19;100.00;100980.72;6390032;27;20504;-73
2022/06/06 05:36:25;;;;;;;12.20;4.55;;;;;;;16.21;100.00;100978.78;6389330;27;20050;-73
2022/06/06 05:40:03;;;;;;;10.38;5.05;;;;;;;16.28;100.00;100979.22;6389805;27;20440;-75
2022/06/06 05:43:23;;;;;;;16.98;5.43;;;;;;;16.33;100.00;100985.00;6389487;27;20050;-75
2022/06/06 05:46:37;;;;;;;15.98;4.45;;;;;;;16.30;100.00;100993.19;6391714;27;20046;-75
2022/06/06 05:49:51;;;;;;;8.13;3.67;;;;;;;16.27;100.00;101002.22;6391532;27;20043;-74
2022/06/06 05:53:13;;;;;;;9.10;4.22;;;;;;;16.25;100.00;100993.53;6392032;27;20514;-73
2022/06/06 05:57:02;;;;;;;7.50;4.05;;;;;;;16.21;100.00;101003.53;6390282;27;20126;-73
2022/06/06 06:00:21;;;;;;;10.90;4.35;;;;;;;16.22;100.00;101005.22;6388780;27;20041;-74
2022/06/06 06:03:44;;;;;;;9.43;4.55;;;;;;;16.27;100.00;101009.34;6387705;27;20130;-73
2022/06/06 06:06:58;;;;;;;8.20;3.67;;;;;;;16.35;100.00;101021.09;6389511;27;20054;-72
2022/06/06 06:10:07;;;;;;;8.70;4.18;;;;;;;16.43;100.00;101020.50;6383452;27;20055;-72
2022/06/06 06:13:32;;;;;;;5.85;3.40;;;;;;;16.43;100.00;101021.34;6375582;27;20409;-74
2022/06/06 06:16:37;;;;;;;8.27;3.72;;;;;;;16.47;100.00;101025.47;6375181;27;20513;-75
2022/06/06 06:19:44;;;;;;;8.88;4.70;;;;;;;16.49;100.00;101028.03;6374995;27;20066;-74
2022/06/06 06:22:52;;;;;;;8.25;3.97;;;;;;;16.51;100.00;101017.31;6375358;27;20051;-74
2022/06/06 06:25:55;;;;;;;8.43;4.30;;;;;;;16.55;100.00;101024.91;6374887;27;20054;-73
2022/06/06 06:28:59;;;;;;;7.65;3.65;;;;;;;16.59;100.00;101030.84;6374145;27;20039;-73
2022/06/06 06:32:32;;;;;;;6.55;3.80;;;;;;;16.66;100.00;101040.03;6373120;27;20047;-73
2022/06/06 06:35:44;;;;;;;11.68;3.88;;;;;;;16.63;100.00;101021.72;6372136;27;20517;-76
2022/06/06 06:39:15;;;;;;;6.65;2.80;;;;;;;16.60;100.00;101024.59;6371584;27;20039;-75
2022/06/06 06:42:34;;;;;;;8.10;3.38;;;;;;;16.62;100.00;101023.53;6374636;27;20059;-73
2022/06/06 06:45:38;;;;;;;7.78;3.63;;;;;;;16.64;100.00;101031.34;6375806;27;20391;-74
2022/06/06 06:48:45;;;;;;;7.35;3.45;;;;;;;16.69;100.00;101024.75;6374658;27;20050;-73
2022/06/06 06:51:57;;;;;;;5.72;2.83;;;;;;;16.80;100.00;101025.78;6375077;27;20051;-73
2022/06/06 06:55:10;;;;;;;11.40;4.55;;;;;;;16.92;100.00;101031.00;6374245;27;20054;-73
2022/06/06 06:58:34;;;;;;;5.45;2.80;;;;;;;16.91;100.00;101023.16;6374555;27;20039;-76
2022/06/06 07:08:32;;;;;;;4.53;2.67;;;;;;;16.96;100.00;101031.63;6374421;27;20054;-74
2022/06/06 07:08:55;;;;;;;5.70;2.75;;;;;;;17.21;100.00;101047.41;6374109;27;20438;-73
2022/06/06 07:12:11;;;;;;;9.45;3.50;;;;;;;17.16;100.00;101052.19;6374021;27;20051;-75
2022/06/06 07:15:21;;;;;;;6.32;3.15;;;;;;;17.16;100.00;101044.22;6373854;27;20051;-76
2022/06/06 07:18:29;;;;;;;7.15;3.08;;;;;;;17.22;100.00;101051.75;6398412;27;20053;-76
2022/06/06 07:21:32;;;;;;;7.68;3.97;;;;;;;17.28;100.00;101057.53;6398370;27;20054;-75
2022/06/06 07:24:34;;;;;;;7.97;3.80;;;;;;;17.21;100.00;101059.81;6399489;27;20049;-76
2022/06/06 07:27:37;;;;;;;8.00;3.80;;;;;;;17.37;100.00;101062.16;6399751;27;20077;-76
2022/06/06 07:30:42;;;;;;;12.13;5.20;;;;;;;17.39;100.00;101058.41;6399083;27;20047;-73
2022/06/06 07:33:54;;;;;;;11.00;4.53;;;;;;;17.41;100.00;101063.63;6389571;27;20054;-74
2022/06/06 07:37:07;;;;;;;12.07;4.55;;;;;;;17.53;100.00;101057.34;6366572;27;20066;-75
2022/06/06 07:40:16;;;;;;;11.40;5.30;;;;;;;17.60;100.00;101060.38;6366231;27;20159;-76
2022/06/06 07:43:47;;;;;;;12.60;5.20;;;;;;;17.52;100.00;101068.94;6368809;27;20562;-77
2022/06/06 07:47:01;;;;;;;9.95;5.45;;;;;;;17.37;100.00;101064.81;6360974;27;20051;-76
2022/06/06 07:50:07;;;;;;;11.00;5.55;;;;;;;17.29;100.00;101068.03;6368935;27;20050;-75
2022/06/06 07:53:17;;;;;;;13.35;6.10;;;;;;;17.21;100.00;101070.44;6373225;27;20051;-74
2022/06/06 07:56:29;;;;;;;13.63;6.93;;;;;;;17.16;100.00;101077.91;6372646;27;20144;-75
2022/06/06 07:59:46;;;;;;;14.20;5.63;;;;;;;17.15;100.00;101073.56;6373063;27;20678;-77
2022/06/06 08:02:57;;;;;;;12.55;6.30;;;;;;;17.20;100.00;101068.75;6373094;27;20195;-76
2022/06/06 08:06:10;;;;;;;11.02;5.72;;;;;;;17.32;100.00;101057.19;6372770;27;20051;-77
2022/06/06 08:09:56;;;;;;;13.60;7.07;;;;;;;17.47;100.00;101058.66;6372761;27;20043;-76
2022/06/06 08:13:11;;;;;;;13.95;6.45;;;;;;;17.60;100.00;101047.09;6353076;27;20047;-76
2022/06/06 08:16:22;;;;;;;13.05;6.68;;;;;;;17.53;100.00;101048.50;6371000;27;20437;-76
2022/06/06 08:19:41;;;;;;;10.82;6.13;;;;;;;17.52;100.00;101041.53;6384364;27;20039;-75
2022/06/06 08:22:44;;;;;;;11.55;6.35;;;;;;;17.55;100.00;101036.81;6371973;27;20047;-73
2022/06/06 08:25:49;;;;;;;11.95;6.63;;;;;;;17.58;100.00;101033.09;6353950;27;20055;-73
2022/06/06 08:28:51;;;;;;;10.23;5.18;;;;;;;17.65;100.00;101029.81;6350255;27;20502;-72
2022/06/06 08:31:55;;;;;;;10.55;5.85;;;;;;;17.77;100.00;101035.16;6370628;27;20051;-72
2022/06/06 08:34:56;;;;;;;8.65;4.78;;;;;;;17.90;100.00;101050.03;6371634;27;20051;-75
2022/06/06 08:38:25;;;;;;;7.75;4.63;;;;;;;18.11;99.52;101047.47;6372092;27;20047;-75
2022/06/06 08:41:59;;;;;;;10.25;4.43;;;;;;;18.25;99.33;101043.69;6365419;27;20058;-74
2022/06/06 08:45:21;;;;;;;8.43;3.63;;;;;;;18.42;94.19;101042.31;6337064;27;20054;-75
2022/06/06 08:48:51;;;;;;;5.63;3.28;;;;;;;18.58;94.11;101041.94;6383512;27;20490;-72
2022/06/06 08:52:00;;;;;;;7.68;3.88;;;;;;;18.76;93.23;101051.09;6371623;27;20501;-77
2022/06/06 08:55:33;;;;;;;5.43;3.40;;;;;;;18.95;93.31;101040.59;6371489;27;20047;-76
2022/06/06 08:59:09;;;;;;;6.68;3.30;;;;;;;19.15;89.74;101046.03;6371522;28;20039;-75
2022/06/06 09:02:38;;;;;;;3.95;2.85;;;;;;;19.24;84.63;101051.44;6371105;28;20047;-75
2022/06/06 09:06:15;;;;;;;5.78;2.78;;;;;;;19.22;80.52;101060.56;6359421;28;20051;-76
2022/06/06 09:09:47;;;;;;;5.22;2.58;;;;;;;19.15;84.93;101048.72;6370968;28;20082;-74
2022/06/06 09:13:14;;;;;;;4.75;2.65;;;;;;;19.14;83.88;101050.53;6352089;28;20426;-76
2022/06/06 09:16:39;;;;;;;6.15;2.92;;;;;;;19.25;84.74;101053.13;6372081;27;20399;-75
2022/06/06 09:20:20;;;;;;;5.50;3.17;;;;;;;19.28;85.36;101049.34;6369353;27;20049;-76
2022/06/06 09:23:54;;;;;;;7.15;3.17;;;;;;;19.24;85.52;101051.44;6346422;28;20062;-77
2022/06/06 09:27:25;;;;;;;7.80;3.60;;;;;;;19.39;85.41;101048.44;6360370;28;20047;-74
2022/06/06 09:30:48;;;;;;;3.78;2.15;;;;;;;19.36;77.93;101052.22;6355944;28;20050;-77
2022/06/06 09:34:19;;;;;;;4.53;2.70;;;;;;;19.50;78.26;101051.88;6345599;28;20046;-76
2022/06/06 09:37:37;;;;;;;3.38;2.33;;;;;;;19.37;78.16;101058.38;6361379;28;20054;-75
2022/06/06 09:40:56;;;;;;;3.03;2.05;;;;;;;19.33;78.38;101055.13;6362298;28;20615;-74
2022/06/06 09:44:08;;;;;;;2.53;2.00;;;;;;;19.38;73.67;101054.75;6371307;27;20047;-75
2022/06/06 09:47:44;;;;;;;2.90;1.90;;;;;;;19.52;73.35;101062.41;6381689;27;20070;-76
2022/06/06 09:51:22;;;;;;;2.25;2.00;;;;;;;19.65;76.14;101059.56;6370756;27;20046;-77
2022/06/06 09:59:05;;;;;;;3.13;1.90;;;;;;;19.79;70.77;101048.53;6375920;27;20054;-75
2022/06/06 10:02:37;;;;;;;2.95;2.00;;;;;;;19.74;69.44;101067.59;6321934;28;20113;-74
2022/06/06 10:06:18;;;;;;;4.45;1.85;;;;;;;19.74;70.20;101058.75;6332107;27;20054;-78
2022/06/06 10:09:56;;;;;;;4.18;1.90;;;;;;;19.48;66.76;101063.63;6353487;27;20064;-75
2022/06/06 10:13:15;;;;;;;2.65;1.60;;;;;;;19.47;67.43;101083.28;6372925;27;20108;-77
2022/06/06 10:16:38;;;;;;;3.97;1.92;;;;;;;19.54;67.69;101072.94;6370807;27;20417;-78
2022/06/06 10:19:55;;;;;;;3.40;1.85;;;;;;;19.64;70.12;101052.53;6367928;27;20048;-75
2022/06/06 10:23:24;;;;;;;3.08;1.90;;;;;;;19.85;65.46;101085.34;6374237;27;20051;-77
2022/06/06 10:26:56;;;;;;;3.03;1.65;;;;;;;19.90;66.27;101069.78;6372863;27;20074;-75
2022/06/06 10:30:11;;;;;;;2.25;1.98;;;;;;;19.96;64.39;101071.91;6351651;27;20039;-74
2022/06/06 10:33:49;;;;;;;3.78;1.85;;;;;;;20.00;64.54;101086.66;6369089;27;20058;-74
2022/06/06 10:37:18;;;;;;;2.47;1.52;;;;;;;20.12;65.37;101070.53;6367743;27;20043;-78
2022/06/06 10:40:39;;;;;;;1.77;1.50;;;;;;;20.18;62.80;101072.69;6371577;27;20520;-76
2022/06/06 10:43:50;;;;;;;1.92;1.27;;;;;;;20.26;61.78;101080.88;6368002;27;20058;-73
2022/06/06 10:47:04;;;;;;;1.58;1.38;;;;;;;20.42;63.43;101075.84;6372741;27;20065;-75
2022/06/06 10:50:12;;;;;;;1.83;1.50;;;;;;;20.67;63.48;101073.69;6372329;27;20039;-74
2022/06/06 10:53:39;;;;;;;1.58;1.40;;;;;;;20.65;61.12;101071.13;6369732;27;20047;-75
2022/06/06 10:57:03;;;;;;;2.58;1.23;;;;;;;20.81;60.32;101065.25;6370960;27;20050;-74
2022/06/06 11:00:14;;;;;;;1.40;1.10;;;;;;;20.82;61.12;101074.09;6348675;28;20051;-75
2022/06/06 11:03:57;;;;;;;1.35;1.00;;;;;;;20.95;60.74;101072.00;6349056;28;20048;-75
2022/06/06 11:07:23;;;;;;;1.50;1.33;;;;;;;21.33;56.53;101078.31;6292438;27;20052;-77
2022/06/06 11:11:15;;;;;;;1.52;1.25;;;;;;;21.28;57.52;101060.00;6369614;27;20058;-75
2022/06/06 11:14:26;;;;;;;1.10;0.93;;;;;;;20.72;55.02;101077.59;6367360;27;20409;-78
2022/06/06 11:17:54;;;;;;;1.08;0.98;;;;;;;20.69;54.75;101061.84;6374509;27;20051;-76
2022/06/06 11:21:23;;;;;;;1.67;0.90;;;;;;;21.08;54.32;101067.19;6371767;27;20050;-77
2022/06/06 11:24:34;;;;;;;2.65;1.08;;;;;;;21.52;58.11;101059.53;6371638;27;20051;-76
2022/06/06 11:28:23;;;;;;;0.65;0.65;;;;;;;21.74;53.00;101082.41;6373918;27;20050;-75
2022/06/06 11:31:49;;;;;;;1.23;1.05;;;;;;;22.22;55.18;101057.31;6372568;27;20039;-75
2022/06/06 11:35:14;;;;;;;1.50;0.90;;;;;;;22.88;50.13;101040.88;6372690;27;20039;-75
2022/06/06 11:39:03;;;;;;;0.98;0.73;;;;;;;23.29;46.09;101046.59;6366547;27;20047;-76
2022/06/06 11:42:25;;;;;;;;;;;;;;;23.01;44.14;101044.03;6371993;27;20061;-74
2022/06/06 11:45:54;;;;;;;1.15;0.70;;;;;;;23.15;44.08;101042.63;6366872;27;20344;-75
2022/06/06 11:49:47;;;;;;;3.53;1.55;;;;;;;23.77;44.85;101040.72;6372473;27;20074;-76
2022/06/06 11:53:27;;;;;;;0.95;0.50;;;;;;;23.79;43.68;101040.53;6320257;28;20533;-75
2022/06/06 11:57:01;;;;;;;0.73;0.73;;;;;;;24.01;42.77;101047.19;6329954;28;20054;-73
2022/06/06 12:00:11;;;;;;;0.52;0.50;;;;;;;23.37;42.15;101045.81;6347368;28;20043;-79
2022/06/06 12:03:45;;;;;;;1.65;0.60;;;;;;;22.28;45.00;101057.53;6350657;27;20561;-76
2022/06/06 12:07:40;;;;;;;1.15;0.98;;;;;;;22.44;47.17;101066.78;6372985;27;20053;-76
2022/06/06 12:10:52;;;;;;;1.30;0.85;;;;;;;21.81;48.64;101066.66;6372190;27;20043;-76
2022/06/06 12:14:23;;;;;;;1.08;0.95;;;;;;;22.20;48.10;101062.78;6369838;27;20494;-77
2022/06/06 12:17:40;;;;;;;1.15;0.88;;;;;;;22.77;48.75;101062.56;6349408;27;20082;-75
2022/06/06 12:21:14;;;;;;;1.27;0.98;;;;;;;23.28;48.49;101063.69;6372281;27;20050;-76
2022/06/06 12:24:39;;;;;;;1.40;1.30;;;;;;;23.30;46.97;101059.03;6370108;27;20043;-74
2022/06/06 12:27:58;;;;;;;2.10;1.25;;;;;;;23.55;46.11;101050.13;6359531;27;20513;-76
2022/06/06 12:31:14;;;;;;;;;;;;;;;23.86;45.91;101049.63;6372322;27;20051;-77
2022/06/06 12:34:20;;;;;;;1.55;1.05;;;;;;;23.79;44.91;101040.53;6372147;27;19926;-72
2022/06/06 12:37:28;;;;;;;1.05;0.93;;;;;;;23.11;45.15;101046.63;6371014;27;20134;-74
2022/06/06 12:40:42;;;;;;;1.33;1.00;;;;;;;22.56;46.33;101048.63;6371850;27;20050;-75
2022/06/06 12:43:56;;;;;;;1.13;0.90;;;;;;;22.51;47.49;101046.41;6363259;27;20058;-76
2022/06/06 12:47:21;;;;;;;1.10;0.90;;;;;;;23.18;45.09;101038.81;6368836;27;20129;-76
2022/06/06 12:50:36;;;;;;;0.80;0.80;;;;;;;23.40;44.43;101032.94;6342565;27;20054;-76
2022/06/06 12:54:11;;;;;;;1.30;0.88;;;;;;;23.62;42.56;101031.56;6370466;27;20047;-76
2022/06/06 12:57:14;;;;;;;1.15;0.73;;;;;;;23.55;42.15;101031.34;6368845;27;20087;-75
2022/06/06 13:00:16;;;;;;;2.25;1.10;;;;;;;23.86;40.59;101022.81;6375990;27;20118;-75
2022/06/06 13:03:32;;;;;;;0.80;0.80;;;;;;;24.37;41.66;101029.03;6371999;28;20047;-72
2022/06/06 13:06:44;;;;;;;0.60;0.52;;;;;;;24.62;41.53;101021.84;6368881;28;20044;-72
2022/06/06 13:10:08;;;;;;;0.70;0.70;;;;;;;25.23;40.91;101008.91;6364375;28;20054;-71
2022/06/06 13:13:28;;;;;;;0.73;0.50;;;;;;;24.46;40.52;101017.28;6371760;28;20047;-73
2022/06/06 13:16:41;;;;;;;1.00;0.90;;;;;;;23.51;39.88;101010.34;6371738;28;20047;-73
2022/06/06 13:20:03;;;;;;;0.88;0.68;;;;;;;23.08;42.89;101012.09;6378146;27;20062;-72
2022/06/06 13:23:29;;;;;;;0.50;0.50;;;;;;;22.89;40.68;101006.88;6385438;27;20047;-74
2022/06/06 13:26:43;;;;;;;1.50;1.00;;;;;;;22.59;41.25;101006.31;6375719;27;20128;-72
2022/06/06 13:29:45;;;;;;;0.52;0.52;;;;;;;22.62;41.50;101010.50;6368900;27;20185;-72
2022/06/06 13:32:58;;;;;;;0.75;0.55;;;;;;;23.13;40.03;101006.28;6374816;27;20054;-75
2022/06/06 13:36:12;;;;;;;0.50;0.50;;;;;;;23.17;40.85;101005.81;6371117;27;20086;-73
2022/06/06 13:39:28;;;;;;;0.73;0.60;;;;;;;22.85;40.68;101010.88;6373137;27;20116;-75
2022/06/06 13:42:50;;;;;;;1.17;0.45;;;;;;;22.17;42.43;101024.81;6374366;27;20606;-76
2022/06/06 13:45:56;;;;;;;0.65;0.57;;;;;;;21.73;42.80;101030.75;6368403;27;20043;-76
2022/06/06 13:49:24;;;;;;;0.75;0.40;;;;;;;21.53;41.84;101034.50;6370485;27;20038;-76
2022/06/06 13:52:51;;;;;;;1.02;0.68;;;;;;;21.29;43.21;101054.50;6347005;27;20051;-76
2022/06/06 13:56:09;;;;;;;0.65;0.65;;;;;;;20.78;47.69;101066.34;6350544;28;20048;-77
2022/06/06 13:59:24;;;;;;;0.70;0.70;;;;;;;19.89;55.63;101068.06;6371894;27;20427;-77
2022/06/06 14:02:40;;;;;;;1.23;0.70;;;;;;;18.68;69.31;101078.31;6364841;27;20047;-77
2022/06/06 14:06:14;;;;;;;1.63;1.30;;;;;;;17.75;77.60;101083.13;6350492;28;20112;-78
2022/06/06 14:09:18;;;;;;;1.67;0.80;;;;;;;17.56;83.93;101083.69;6350336;28;20063;-74
2022/06/06 14:12:30;;;;;;;0.93;0.75;;;;;;;17.87;86.87;101082.16;6349837;28;20048;-74
2022/06/06 14:15:41;;;;;;;0.82;0.70;;;;;;;18.32;79.91;101082.16;6349938;28;20502;-74
2022/06/06 14:18:43;;;;;;;0.73;0.73;;;;;;;18.46;85.21;101083.69;6350093;28;20256;-74
2022/06/06 14:21:49;;;;;;;1.05;0.80;;;;;;;18.45;85.98;101076.69;6365771;27;20050;-73
2022/06/06 14:24:54;;;;;;;2.45;0.90;;;;;;;18.56;83.83;101073.13;6375107;27;20138;-73
2022/06/06 14:28:16;;;;;;;0.82;0.70;;;;;;;18.74;86.20;101074.31;6375213;27;20043;-71
2022/06/06 14:31:22;;;;;;;0.60;0.60;;;;;;;18.94;83.10;101070.88;6374400;27;20043;-73
2022/06/06 14:34:33;;;;;;;1.33;0.88;;;;;;;19.03;79.11;101063.94;6375068;27;20537;-73
2022/06/06 14:37:35;;;;;;;1.35;0.85;;;;;;;19.02;75.82;101054.22;6373136;27;20379;-71
2022/06/06 14:40:44;;;;;;;0.85;0.50;;;;;;;18.97;71.29;101043.09;6374794;27;20486;-72
2022/06/06 14:43:52;;;;;;;0.68;0.60;;;;;;;18.96;71.50;101046.75;6374575;27;20047;-71
2022/06/06 14:47:03;;;;;;;0.25;0.25;;;;;;;19.02;73.17;101038.25;6374816;27;20055;-74
2022/06/06 14:53:43;;;;;;;0.75;0.65;;;;;;;19.25;71.11;101031.78;6378956;27;20047;-74
2022/06/06 14:56:50;;;;;;;0.75;0.40;;;;;;;19.41;64.84;101019.84;6400221;27;20057;-74
2022/06/06 14:59:53;;;;;;;1.33;0.68;;;;;;;19.56;61.09;101017.66;6399709;27;20051;-74
2022/06/06 15:03:01;;;;;;;2.92;1.63;;;;;;;19.78;61.37;101028.19;6400127;27;20088;-73
2022/06/06 15:06:07;;;;;;;1.13;0.77;;;;;;;20.05;59.70;101016.91;6400279;27;20053;-77
2022/06/06 15:09:15;;;;;;;0.73;0.50;;;;;;;20.21;58.63;101013.69;6400745;27;20558;-78
2022/06/06 15:12:26;;;;;;;0.43;0.40;;;;;;;20.30;59.07;101017.34;6400180;27;20047;-76
2022/06/06 15:15:29;;;;;;;0.45;0.45;;;;;;;20.46;60.02;101018.50;6399578;27;20054;-75
2022/06/06 15:18:37;;;;;;;0.30;0.30;;;;;;;20.70;56.68;101015.44;6399986;27;20072;-74
2022/06/06 15:21:42;;;;;;;0.30;0.30;;;;;;;20.85;57.82;101012.34;6383492;27;20035;-77
2022/06/06 15:24:45;;;;;;;0.40;0.40;;;;;;;20.91;57.25;101007.28;6374528;27;20054;-74